sensor_id;sensor_type;location;lat;lon;timestamp;pressure;altitude;pressure_sealevel;temperature;humidity
804;BME280;25687;49.976;8.240;2022-08-18T00:00:42;99620.06;;;22.21;75.76
804;BME280;25687;49.976;8.240;2022-08-18T00:03:07;99612.88;;;22.15;75.77
804;BME280;25687;49.976;8.240;2022-08-18T00:05:35;99615.84;;;22.12;75.97
804;BME280;25687;49.976;8.240;2022-08-18T00:08:01;99613.75;;;22.07;76.09
804;BME280;25687;49.976;8.240;2022-08-18T00:10:26;99612.81;;;21.91;76.89
804;BME280;25687;49.976;8.240;2022-08-18T00:12:52;99615.13;;;21.86;77.26
804;BME280;25687;49.976;8.240;2022-08-18T00:15:18;99611.16;;;21.90;76.97
804;BME280;25687;49.976;8.240;2022-08-18T00:17:44;99604.81;;;21.93;76.62
804;BME280;25687;49.976;8.240;2022-08-18T00:20:13;99612.84;;;21.83;77.55
804;BME280;25687;49.976;8.240;2022-08-18T00:22:39;99614.69;;;21.74;78.84
804;BME280;25687;49.976;8.240;2022-08-18T00:25:06;99620.13;;;21.56;80.64
804;BME280;25687;49.976;8.240;2022-08-18T00:27:34;99619.44;;;21.54;81.50
804;BME280;25687;49.976;8.240;2022-08-18T00:30:03;99616.81;;;21.54;81.18
804;BME280;25687;49.976;8.240;2022-08-18T00:32:37;99617.16;;;21.51;80.82
804;BME280;25687;49.976;8.240;2022-08-18T00:35:12;99614.38;;;21.44;81.73
804;BME280;25687;49.976;8.240;2022-08-18T00:37:39;99615.34;;;21.52;81.98
804;BME280;25687;49.976;8.240;2022-08-18T00:40:05;99618.31;;;21.57;81.92
804;BME280;25687;49.976;8.240;2022-08-18T00:42:40;99611.47;;;21.56;81.48
804;BME280;25687;49.976;8.240;2022-08-18T00:45:09;99612.25;;;21.65;80.59
804;BME280;25687;49.976;8.240;2022-08-18T00:47:36;99623.22;;;21.43;81.98
804;BME280;25687;49.976;8.240;2022-08-18T00:50:02;99627.16;;;21.31;82.65
804;BME280;25687;49.976;8.240;2022-08-18T00:52:28;99636.97;;;21.21;83.07
804;BME280;25687;49.976;8.240;2022-08-18T00:54:54;99642.19;;;21.21;84.41
804;BME280;25687;49.976;8.240;2022-08-18T00:57:21;99647.59;;;21.19;82.93
804;BME280;25687;49.976;8.240;2022-08-18T00:59:53;99651.34;;;21.33;83.32
804;BME280;25687;49.976;8.240;2022-08-18T01:02:24;99657.72;;;21.47;83.08
804;BME280;25687;49.976;8.240;2022-08-18T01:04:55;99658.03;;;21.60;81.69
804;BME280;25687;49.976;8.240;2022-08-18T01:07:27;99658.53;;;21.64;80.96
804;BME280;25687;49.976;8.240;2022-08-18T01:09:55;99660.66;;;21.69;81.12
804;BME280;25687;49.976;8.240;2022-08-18T01:12:27;99666.69;;;21.69;80.42
804;BME280;25687;49.976;8.240;2022-08-18T01:14:53;99667.66;;;21.76;79.91
804;BME280;25687;49.976;8.240;2022-08-18T01:17:19;99659.19;;;21.74;79.99
804;BME280;25687;49.976;8.240;2022-08-18T01:20:03;99666.19;;;21.74;80.13
804;BME280;25687;49.976;8.240;2022-08-18T01:22:55;99661.81;;;21.66;80.16
804;BME280;25687;49.976;8.240;2022-08-18T01:25:22;99655.41;;;21.69;80.05
804;BME280;25687;49.976;8.240;2022-08-18T01:28:06;99647.25;;;21.72;79.79
804;BME280;25687;49.976;8.240;2022-08-18T01:30:44;99650.84;;;21.63;80.01
804;BME280;25687;49.976;8.240;2022-08-18T01:33:10;99640.38;;;21.71;79.97
804;BME280;25687;49.976;8.240;2022-08-18T01:35:37;99637.91;;;21.69;79.56
804;BME280;25687;49.976;8.240;2022-08-18T01:38:04;99641.38;;;21.62;79.87
804;BME280;25687;49.976;8.240;2022-08-18T01:40:30;99636.75;;;21.55;79.76
804;BME280;25687;49.976;8.240;2022-08-18T01:42:56;99639.38;;;21.55;79.61
804;BME280;25687;49.976;8.240;2022-08-18T01:45:21;99637.78;;;21.46;80.20
804;BME280;25687;49.976;8.240;2022-08-18T01:47:47;99637.47;;;21.24;81.47
804;BME280;25687;49.976;8.240;2022-08-18T01:50:12;99644.00;;;21.12;82.89
804;BME280;25687;49.976;8.240;2022-08-18T01:52:38;99653.97;;;21.00;83.65
804;BME280;25687;49.976;8.240;2022-08-18T01:55:05;99645.31;;;21.08;83.43
804;BME280;25687;49.976;8.240;2022-08-18T01:57:32;99651.00;;;21.20;82.76
804;BME280;25687;49.976;8.240;2022-08-18T01:59:59;99653.63;;;21.20;82.73
804;BME280;25687;49.976;8.240;2022-08-18T02:02:27;99642.88;;;21.31;82.03
804;BME280;25687;49.976;8.240;2022-08-18T02:05:01;99635.16;;;21.29;81.58
804;BME280;25687;49.976;8.240;2022-08-18T02:07:27;99633.19;;;21.23;82.35
804;BME280;25687;49.976;8.240;2022-08-18T02:09:53;99637.94;;;21.28;81.61
804;BME280;25687;49.976;8.240;2022-08-18T02:12:18;99640.38;;;21.29;81.08
804;BME280;25687;49.976;8.240;2022-08-18T02:14:44;99647.91;;;21.24;81.34
804;BME280;25687;49.976;8.240;2022-08-18T02:17:11;99637.78;;;21.29;81.02
804;BME280;25687;49.976;8.240;2022-08-18T02:19:39;99640.56;;;21.36;80.39
804;BME280;25687;49.976;8.240;2022-08-18T02:22:06;99632.84;;;21.43;80.58
804;BME280;25687;49.976;8.240;2022-08-18T02:24:32;99642.19;;;21.29;81.35
804;BME280;25687;49.976;8.240;2022-08-18T02:26:57;99642.19;;;21.37;80.82
804;BME280;25687;49.976;8.240;2022-08-18T02:29:23;99646.44;;;21.47;80.29
804;BME280;25687;49.976;8.240;2022-08-18T02:31:48;99646.91;;;21.42;80.18
804;BME280;25687;49.976;8.240;2022-08-18T02:34:14;99644.31;;;21.42;80.63
804;BME280;25687;49.976;8.240;2022-08-18T02:36:40;99644.78;;;21.45;80.79
804;BME280;25687;49.976;8.240;2022-08-18T02:39:05;99639.56;;;21.45;81.18
804;BME280;25687;49.976;8.240;2022-08-18T02:41:30;99647.09;;;21.40;81.58
804;BME280;25687;49.976;8.240;2022-08-18T02:43:58;99634.66;;;21.42;81.66
804;BME280;25687;49.976;8.240;2022-08-18T02:46:24;99629.13;;;21.29;82.41
804;BME280;25687;49.976;8.240;2022-08-18T02:48:49;99629.63;;;21.33;83.05
804;BME280;25687;49.976;8.240;2022-08-18T02:51:16;99634.34;;;21.21;83.64
804;BME280;25687;49.976;8.240;2022-08-18T02:53:44;99639.59;;;21.29;83.45
804;BME280;25687;49.976;8.240;2022-08-18T02:56:12;99645.13;;;21.34;82.93
804;BME280;25687;49.976;8.240;2022-08-18T02:58:50;99646.78;;;21.43;82.55
804;BME280;25687;49.976;8.240;2022-08-18T03:01:18;99643.66;;;21.56;81.61
804;BME280;25687;49.976;8.240;2022-08-18T03:03:43;99644.97;;;21.60;80.78
804;BME280;25687;49.976;8.240;2022-08-18T03:06:08;99644.16;;;21.60;78.78
804;BME280;25687;49.976;8.240;2022-08-18T03:08:34;99636.81;;;21.47;78.93
804;BME280;25687;49.976;8.240;2022-08-18T03:10:59;99647.13;;;21.24;79.17
804;BME280;25687;49.976;8.240;2022-08-18T03:13:24;99649.56;;;21.34;80.51
804;BME280;25687;49.976;8.240;2022-08-18T03:15:50;99650.38;;;21.42;80.78
804;BME280;25687;49.976;8.240;2022-08-18T03:18:15;99642.84;;;21.48;80.63
804;BME280;25687;49.976;8.240;2022-08-18T03:20:41;99647.72;;;21.51;80.49
804;BME280;25687;49.976;8.240;2022-08-18T03:23:10;99649.34;;;21.52;80.62
804;BME280;25687;49.976;8.240;2022-08-18T03:25:36;99644.16;;;21.35;81.22
804;BME280;25687;49.976;8.240;2022-08-18T03:28:06;99646.28;;;21.40;81.33
804;BME280;25687;49.976;8.240;2022-08-18T03:30:32;99644.31;;;21.42;81.35
804;BME280;25687;49.976;8.240;2022-08-18T03:32:57;99648.25;;;21.38;81.02
804;BME280;25687;49.976;8.240;2022-08-18T03:35:22;99650.84;;;21.29;81.68
804;BME280;25687;49.976;8.240;2022-08-18T03:37:48;99651.00;;;21.20;82.94
804;BME280;25687;49.976;8.240;2022-08-18T03:40:13;99644.19;;;21.19;82.83
804;BME280;25687;49.976;8.240;2022-08-18T03:42:38;99648.59;;;21.10;83.29
804;BME280;25687;49.976;8.240;2022-08-18T03:45:04;99646.47;;;21.14;83.66
804;BME280;25687;49.976;8.240;2022-08-18T03:47:30;99655.78;;;21.08;83.97
804;BME280;25687;49.976;8.240;2022-08-18T03:49:56;99652.00;;;21.10;84.16
804;BME280;25687;49.976;8.240;2022-08-18T03:52:21;99652.66;;;21.04;84.83
804;BME280;25687;49.976;8.240;2022-08-18T03:54:47;99653.97;;;21.08;84.95
804;BME280;25687;49.976;8.240;2022-08-18T03:57:12;99640.41;;;21.13;84.53
804;BME280;25687;49.976;8.240;2022-08-18T03:59:39;99642.53;;;21.09;84.85
804;BME280;25687;49.976;8.240;2022-08-18T04:02:08;99638.78;;;21.12;84.75
804;BME280;25687;49.976;8.240;2022-08-18T04:04:34;99648.06;;;20.90;86.73
804;BME280;25687;49.976;8.240;2022-08-18T04:07:05;99646.09;;;20.84;87.51
804;BME280;25687;49.976;8.240;2022-08-18T04:09:32;99648.25;;;20.96;87.12
804;BME280;25687;49.976;8.240;2022-08-18T04:12:03;99644.66;;;21.14;85.95
804;BME280;25687;49.976;8.240;2022-08-18T04:14:29;99639.91;;;21.26;84.80
804;BME280;25687;49.976;8.240;2022-08-18T04:16:57;99640.38;;;21.38;83.96
804;BME280;25687;49.976;8.240;2022-08-18T04:19:22;99641.53;;;21.43;84.04
804;BME280;25687;49.976;8.240;2022-08-18T04:21:50;99642.34;;;21.36;84.58
804;BME280;25687;49.976;8.240;2022-08-18T04:24:16;99649.25;;;21.28;85.54
804;BME280;25687;49.976;8.240;2022-08-18T04:26:45;99639.44;;;21.22;86.89
804;BME280;25687;49.976;8.240;2022-08-18T04:29:13;99644.16;;;21.35;85.71
804;BME280;25687;49.976;8.240;2022-08-18T04:31:39;99645.31;;;21.33;86.36
804;BME280;25687;49.976;8.240;2022-08-18T04:34:05;99642.38;;;21.27;88.00
804;BME280;25687;49.976;8.240;2022-08-18T04:36:32;99639.59;;;21.29;88.28
804;BME280;25687;49.976;8.240;2022-08-18T04:38:58;99639.41;;;21.31;88.38
804;BME280;25687;49.976;8.240;2022-08-18T04:41:24;99642.03;;;21.31;88.27
804;BME280;25687;49.976;8.240;2022-08-18T04:44:01;99643.34;;;21.35;88.06
804;BME280;25687;49.976;8.240;2022-08-18T04:46:28;99650.84;;;21.46;87.18
804;BME280;25687;49.976;8.240;2022-08-18T04:48:57;99638.56;;;21.47;86.53
804;BME280;25687;49.976;8.240;2022-08-18T04:51:25;99645.47;;;21.56;86.59
804;BME280;25687;49.976;8.240;2022-08-18T04:53:50;99647.56;;;21.52;87.80
804;BME280;25687;49.976;8.240;2022-08-18T04:56:25;99643.66;;;21.32;88.08
804;BME280;25687;49.976;8.240;2022-08-18T04:58:59;99649.56;;;21.34;87.66
804;BME280;25687;49.976;8.240;2022-08-18T05:01:28;99648.56;;;21.43;86.49
804;BME280;25687;49.976;8.240;2022-08-18T05:03:55;99653.81;;;21.35;85.53
804;BME280;25687;49.976;8.240;2022-08-18T05:06:22;99661.19;;;21.31;85.78
804;BME280;25687;49.976;8.240;2022-08-18T05:08:52;99666.72;;;21.28;85.46
804;BME280;25687;49.976;8.240;2022-08-18T05:11:19;99662.94;;;21.31;85.77
804;BME280;25687;49.976;8.240;2022-08-18T05:13:47;99675.53;;;21.27;85.83
804;BME280;25687;49.976;8.240;2022-08-18T05:16:12;99678.00;;;21.37;86.07
804;BME280;25687;49.976;8.240;2022-08-18T05:18:38;99679.31;;;21.41;86.70
804;BME280;25687;49.976;8.240;2022-08-18T05:21:06;99679.00;;;21.27;88.70
804;BME280;25687;49.976;8.240;2022-08-18T05:23:33;99681.44;;;21.21;89.90
804;BME280;25687;49.976;8.240;2022-08-18T05:26:00;99689.78;;;21.33;89.08
804;BME280;25687;49.976;8.240;2022-08-18T05:28:28;99685.84;;;21.37;88.47
804;BME280;25687;49.976;8.240;2022-08-18T05:30:53;99695.47;;;21.44;88.25
804;BME280;25687;49.976;8.240;2022-08-18T05:33:19;99692.53;;;21.39;89.15
804;BME280;25687;49.976;8.240;2022-08-18T05:35:47;99696.66;;;21.58;87.13
804;BME280;25687;49.976;8.240;2022-08-18T05:38:32;99692.88;;;21.44;87.41
804;BME280;25687;49.976;8.240;2022-08-18T05:41:12;99678.81;;;21.54;85.22
804;BME280;25687;49.976;8.240;2022-08-18T05:43:41;99685.50;;;21.48;85.71
804;BME280;25687;49.976;8.240;2022-08-18T05:46:09;99680.75;;;21.52;84.85
804;BME280;25687;49.976;8.240;2022-08-18T05:48:35;99675.53;;;21.27;86.91
804;BME280;25687;49.976;8.240;2022-08-18T05:51:09;99692.41;;;21.16;88.06
804;BME280;25687;49.976;8.240;2022-08-18T05:53:36;99685.84;;;21.20;89.49
804;BME280;25687;49.976;8.240;2022-08-18T05:56:24;99689.44;;;21.44;88.05
804;BME280;25687;49.976;8.240;2022-08-18T05:59:12;99691.88;;;21.54;87.33
804;BME280;25687;49.976;8.240;2022-08-18T06:01:43;99690.28;;;21.61;87.07
804;BME280;25687;49.976;8.240;2022-08-18T06:04:19;99690.25;;;21.69;85.61
804;BME280;25687;49.976;8.240;2022-08-18T06:06:46;99690.59;;;21.74;84.20
804;BME280;25687;49.976;8.240;2022-08-18T06:09:27;99685.66;;;21.80;83.88
804;BME280;25687;49.976;8.240;2022-08-18T06:12:02;99685.00;;;21.69;86.50
804;BME280;25687;49.976;8.240;2022-08-18T06:14:29;99691.41;;;21.75;86.06
804;BME280;25687;49.976;8.240;2022-08-18T06:16:58;99689.31;;;21.62;86.65
804;BME280;25687;49.976;8.240;2022-08-18T06:19:35;99684.53;;;21.74;87.42
804;BME280;25687;49.976;8.240;2022-08-18T06:24:48;99673.06;;;21.83;89.46
804;BME280;25687;49.976;8.240;2022-08-18T06:29:56;99661.13;;;21.81;89.22
804;BME280;25687;49.976;8.240;2022-08-18T06:43:32;99674.34;;;21.96;94.00
804;BME280;25687;49.976;8.240;2022-08-18T06:46:00;99671.72;;;21.96;93.71
804;BME280;25687;49.976;8.240;2022-08-18T06:48:43;99668.94;;;21.89;94.29
804;BME280;25687;49.976;8.240;2022-08-18T06:51:14;99673.78;;;22.17;91.25
804;BME280;25687;49.976;8.240;2022-08-18T06:54:01;99674.97;;;22.06;88.87
804;BME280;25687;49.976;8.240;2022-08-18T06:56:34;99674.59;;;22.17;89.81
804;BME280;25687;49.976;8.240;2022-08-18T07:02:16;99672.88;;;22.41;88.81
804;BME280;25687;49.976;8.240;2022-08-18T07:05:14;99680.78;;;22.24;88.85
804;BME280;25687;49.976;8.240;2022-08-18T07:07:45;99678.75;;;22.43;89.17
804;BME280;25687;49.976;8.240;2022-08-18T07:12:39;99691.16;;;22.58;86.43
804;BME280;25687;49.976;8.240;2022-08-18T07:15:05;99691.91;;;22.66;83.08
804;BME280;25687;49.976;8.240;2022-08-18T07:17:36;99694.59;;;22.50;82.81
804;BME280;25687;49.976;8.240;2022-08-18T07:20:07;99693.31;;;22.46;81.18
804;BME280;25687;49.976;8.240;2022-08-18T07:22:56;99701.28;;;22.61;80.69
804;BME280;25687;49.976;8.240;2022-08-18T07:25:26;99696.25;;;22.82;81.39
804;BME280;25687;49.976;8.240;2022-08-18T07:27:53;99707.03;;;22.87;79.74
804;BME280;25687;49.976;8.240;2022-08-18T07:32:52;99708.66;;;22.88;77.08
804;BME280;25687;49.976;8.240;2022-08-18T07:35:23;99713.22;;;22.95;75.89
804;BME280;25687;49.976;8.240;2022-08-18T07:38:13;99714.53;;;22.91;76.69
804;BME280;25687;49.976;8.240;2022-08-18T07:40:48;99713.44;;;23.08;75.74
804;BME280;25687;49.976;8.240;2022-08-18T07:43:35;99712.72;;;23.14;73.32
804;BME280;25687;49.976;8.240;2022-08-18T07:46:10;99713.38;;;23.25;72.08
804;BME280;25687;49.976;8.240;2022-08-18T07:48:37;99722.59;;;22.89;73.22
804;BME280;25687;49.976;8.240;2022-08-18T07:51:16;99725.53;;;22.63;73.28
804;BME280;25687;49.976;8.240;2022-08-18T07:56:27;99729.44;;;22.67;73.75
804;BME280;25687;49.976;8.240;2022-08-18T08:02:10;99738.44;;;22.64;77.67
804;BME280;25687;49.976;8.240;2022-08-18T08:07:27;99752.47;;;22.32;81.03
804;BME280;25687;49.976;8.240;2022-08-18T08:13:05;99754.88;;;22.50;83.10
804;BME280;25687;49.976;8.240;2022-08-18T08:15:29;99763.22;;;22.53;81.33
804;BME280;25687;49.976;8.240;2022-08-18T08:18:34;99771.25;;;22.60;80.50
804;BME280;25687;49.976;8.240;2022-08-18T08:21:05;99765.44;;;22.73;78.81
804;BME280;25687;49.976;8.240;2022-08-18T08:26:56;99759.72;;;23.01;76.73
804;BME280;25687;49.976;8.240;2022-08-18T08:29:40;99759.47;;;23.19;76.66
804;BME280;25687;49.976;8.240;2022-08-18T08:32:15;99752.56;;;22.95;77.39
804;BME280;25687;49.976;8.240;2022-08-18T08:34:56;99761.78;;;23.14;77.28
804;BME280;25687;49.976;8.240;2022-08-18T08:37:31;99761.88;;;23.29;76.49
804;BME280;25687;49.976;8.240;2022-08-18T08:40:02;99756.94;;;23.26;75.11
804;BME280;25687;49.976;8.240;2022-08-18T08:42:57;99752.78;;;23.40;74.49
804;BME280;25687;49.976;8.240;2022-08-18T08:45:47;99756.91;;;23.34;75.58
804;BME280;25687;49.976;8.240;2022-08-18T08:48:22;99756.63;;;23.52;75.51
804;BME280;25687;49.976;8.240;2022-08-18T08:50:54;99758.78;;;23.48;75.59
804;BME280;25687;49.976;8.240;2022-08-18T08:53:37;99760.59;;;23.63;75.20
804;BME280;25687;49.976;8.240;2022-08-18T08:56:08;99759.66;;;23.79;75.12
804;BME280;25687;49.976;8.240;2022-08-18T08:58:59;99760.03;;;23.52;75.68
804;BME280;25687;49.976;8.240;2022-08-18T09:01:47;99760.59;;;23.63;76.02
804;BME280;25687;49.976;8.240;2022-08-18T09:07:07;99756.47;;;24.07;73.57
804;BME280;25687;49.976;8.240;2022-08-18T09:12:34;99768.78;;;23.68;76.87
804;BME280;25687;49.976;8.240;2022-08-18T09:18:43;99770.88;;;24.11;71.13
804;BME280;25687;49.976;8.240;2022-08-18T09:21:20;99779.72;;;23.95;72.82
804;BME280;25687;49.976;8.240;2022-08-18T09:24:01;99773.22;;;24.06;72.79
804;BME280;25687;49.976;8.240;2022-08-18T09:27:11;99774.59;;;24.01;72.90
804;BME280;25687;49.976;8.240;2022-08-18T09:34:54;99773.13;;;23.99;69.64
804;BME280;25687;49.976;8.240;2022-08-18T09:37:51;99765.81;;;23.86;69.66
804;BME280;25687;49.976;8.240;2022-08-18T09:40:34;99776.50;;;23.84;71.77
804;BME280;25687;49.976;8.240;2022-08-18T09:46:56;99785.34;;;23.92;70.13
804;BME280;25687;49.976;8.240;2022-08-18T09:49:30;99781.66;;;23.78;71.20
804;BME280;25687;49.976;8.240;2022-08-18T09:51:56;99776.94;;;23.73;71.55
804;BME280;25687;49.976;8.240;2022-08-18T09:54:27;99777.84;;;23.65;71.92
804;BME280;25687;49.976;8.240;2022-08-18T09:57:18;99777.91;;;23.57;72.63
804;BME280;25687;49.976;8.240;2022-08-18T10:02:11;99772.47;;;23.59;72.42
804;BME280;25687;49.976;8.240;2022-08-18T10:04:39;99774.78;;;23.77;72.46
804;BME280;25687;49.976;8.240;2022-08-18T10:07:17;99774.78;;;23.77;71.83
804;BME280;25687;49.976;8.240;2022-08-18T10:09:56;99779.63;;;23.65;72.20
804;BME280;25687;49.976;8.240;2022-08-18T10:12:34;99775.59;;;23.77;70.31
804;BME280;25687;49.976;8.240;2022-08-18T10:15:18;99772.47;;;23.59;71.73
804;BME280;25687;49.976;8.240;2022-08-18T10:17:55;99784.72;;;23.43;72.84
804;BME280;25687;49.976;8.240;2022-08-18T10:20:50;99787.22;;;23.60;69.87
804;BME280;25687;49.976;8.240;2022-08-18T10:28:59;99774.75;;;23.62;70.55
804;BME280;25687;49.976;8.240;2022-08-18T10:31:26;99776.84;;;23.81;69.96
804;BME280;25687;49.976;8.240;2022-08-18T10:34:07;99778.41;;;23.76;69.34
804;BME280;25687;49.976;8.240;2022-08-18T10:36:52;99773.59;;;23.79;68.06
804;BME280;25687;49.976;8.240;2022-08-18T10:39:41;99763.09;;;23.79;68.40
804;BME280;25687;49.976;8.240;2022-08-18T10:42:30;99758.88;;;23.32;70.80
804;BME280;25687;49.976;8.240;2022-08-18T10:45:13;99762.06;;;23.27;70.98
804;BME280;25687;49.976;8.240;2022-08-18T10:47:39;99759.28;;;23.20;72.06
804;BME280;25687;49.976;8.240;2022-08-18T10:50:27;99766.38;;;23.43;70.34
804;BME280;25687;49.976;8.240;2022-08-18T10:55:56;99759.13;;;23.83;68.07
804;BME280;25687;49.976;8.240;2022-08-18T11:01:05;99752.47;;;23.96;66.99
804;BME280;25687;49.976;8.240;2022-08-18T11:06:20;99758.78;;;24.61;64.07
804;BME280;25687;49.976;8.240;2022-08-18T11:08:49;99757.94;;;24.91;63.72
804;BME280;25687;49.976;8.240;2022-08-18T11:11:20;99766.66;;;25.13;60.91
804;BME280;25687;49.976;8.240;2022-08-18T11:14:14;99766.53;;;25.00;62.28
804;BME280;25687;49.976;8.240;2022-08-18T11:17:01;99763.94;;;24.85;62.33
804;BME280;25687;49.976;8.240;2022-08-18T11:19:36;99765.00;;;24.90;62.85
804;BME280;25687;49.976;8.240;2022-08-18T11:22:02;99768.41;;;25.27;60.74
804;BME280;25687;49.976;8.240;2022-08-18T11:24:29;99765.78;;;25.06;60.48
804;BME280;25687;49.976;8.240;2022-08-18T11:26:59;99757.31;;;25.10;61.24
804;BME280;25687;49.976;8.240;2022-08-18T11:29:34;99730.44;;;25.93;57.95
804;BME280;25687;49.976;8.240;2022-08-18T11:37:43;99667.03;;;25.60;57.63
804;BME280;25687;49.976;8.240;2022-08-18T11:40:37;99674.75;;;25.61;57.62
804;BME280;25687;49.976;8.240;2022-08-18T11:46:00;99679.53;;;25.51;57.24
804;BME280;25687;49.976;8.240;2022-08-18T11:48:47;99686.00;;;25.49;58.84
804;BME280;25687;49.976;8.240;2022-08-18T11:51:19;99700.66;;;25.58;58.93
804;BME280;25687;49.976;8.240;2022-08-18T11:56:22;99672.91;;;26.32;54.80
804;BME280;25687;49.976;8.240;2022-08-18T12:01:47;99705.13;;;26.28;54.95
804;BME280;25687;49.976;8.240;2022-08-18T12:04:31;99704.41;;;26.47;52.74
804;BME280;25687;49.976;8.240;2022-08-18T12:07:05;99687.84;;;26.80;51.66
804;BME280;25687;49.976;8.240;2022-08-18T12:09:42;99682.00;;;27.38;49.98
804;BME280;25687;49.976;8.240;2022-08-18T12:12:29;99692.38;;;27.13;49.29
804;BME280;25687;49.976;8.240;2022-08-18T12:15:23;99687.63;;;26.68;49.51
804;BME280;25687;49.976;8.240;2022-08-18T12:17:48;99682.69;;;26.52;48.86
804;BME280;25687;49.976;8.240;2022-08-18T12:20:14;99673.94;;;26.38;49.01
804;BME280;25687;49.976;8.240;2022-08-18T12:22:42;99670.06;;;26.34;47.63
804;BME280;25687;49.976;8.240;2022-08-18T12:25:11;99682.13;;;25.73;50.85
804;BME280;25687;49.976;8.240;2022-08-18T12:27:37;99674.72;;;26.25;49.80
804;BME280;25687;49.976;8.240;2022-08-18T12:30:04;99664.06;;;26.60;50.71
804;BME280;25687;49.976;8.240;2022-08-18T12:32:32;99667.59;;;26.25;50.59
804;BME280;25687;49.976;8.240;2022-08-18T12:34:59;99669.91;;;26.42;50.19
804;BME280;25687;49.976;8.240;2022-08-18T12:37:27;99655.81;;;26.83;48.12
804;BME280;25687;49.976;8.240;2022-08-18T12:39:53;99654.00;;;27.11;48.82
804;BME280;25687;49.976;8.240;2022-08-18T12:46:11;99656.53;;;27.84;45.21
804;BME280;25687;49.976;8.240;2022-08-18T12:48:36;99654.88;;;27.97;45.54
804;BME280;25687;49.976;8.240;2022-08-18T12:51:05;99648.66;;;27.78;46.08
804;BME280;25687;49.976;8.240;2022-08-18T12:53:31;99660.41;;;28.41;45.12
804;BME280;25687;49.976;8.240;2022-08-18T12:55:58;99660.91;;;28.63;43.25
804;BME280;25687;49.976;8.240;2022-08-18T12:58:24;99657.59;;;28.74;42.80
804;BME280;25687;49.976;8.240;2022-08-18T13:00:49;99664.75;;;28.60;41.95
804;BME280;25687;49.976;8.240;2022-08-18T13:03:16;99664.97;;;28.20;42.86
804;BME280;25687;49.976;8.240;2022-08-18T13:05:43;99669.47;;;28.13;43.12
804;BME280;25687;49.976;8.240;2022-08-18T13:08:16;99663.81;;;28.09;43.43
804;BME280;25687;49.976;8.240;2022-08-18T13:10:43;99653.00;;;28.17;43.57
804;BME280;25687;49.976;8.240;2022-08-18T13:13:11;99663.19;;;28.53;42.83
804;BME280;25687;49.976;8.240;2022-08-18T13:15:38;99658.22;;;28.31;42.42
804;BME280;25687;49.976;8.240;2022-08-18T13:18:03;99648.84;;;27.76;44.49
804;BME280;25687;49.976;8.240;2022-08-18T13:20:31;99649.69;;;27.70;43.99
804;BME280;25687;49.976;8.240;2022-08-18T13:22:57;99640.56;;;27.59;44.81
804;BME280;25687;49.976;8.240;2022-08-18T13:25:23;99631.63;;;27.60;45.08
804;BME280;25687;49.976;8.240;2022-08-18T13:27:48;99626.34;;;27.53;45.27
804;BME280;25687;49.976;8.240;2022-08-18T13:30:16;99624.63;;;27.86;44.10
804;BME280;25687;49.976;8.240;2022-08-18T13:32:42;99623.84;;;27.79;43.62
804;BME280;25687;49.976;8.240;2022-08-18T13:35:08;99624.66;;;27.79;43.47
804;BME280;25687;49.976;8.240;2022-08-18T13:37:33;99626.84;;;27.89;44.32
804;BME280;25687;49.976;8.240;2022-08-18T13:40:00;99631.56;;;27.80;44.10
804;BME280;25687;49.976;8.240;2022-08-18T13:42:27;99623.91;;;27.32;44.98
804;BME280;25687;49.976;8.240;2022-08-18T13:44:54;99626.78;;;26.97;46.38
804;BME280;25687;49.976;8.240;2022-08-18T13:47:22;99622.13;;;26.92;46.55
804;BME280;25687;49.976;8.240;2022-08-18T13:49:53;99622.53;;;26.82;46.69
804;BME280;25687;49.976;8.240;2022-08-18T13:52:19;99620.25;;;26.66;47.55
804;BME280;25687;49.976;8.240;2022-08-18T13:54:44;99616.84;;;26.92;47.13
804;BME280;25687;49.976;8.240;2022-08-18T13:57:10;99617.44;;;27.28;45.91
804;BME280;25687;49.976;8.240;2022-08-18T13:59:36;99602.38;;;27.48;45.58
804;BME280;25687;49.976;8.240;2022-08-18T14:02:07;99604.94;;;27.75;45.23
804;BME280;25687;49.976;8.240;2022-08-18T14:04:36;99611.53;;;27.19;45.62
804;BME280;25687;49.976;8.240;2022-08-18T14:07:03;99604.25;;;26.74;46.46
804;BME280;25687;49.976;8.240;2022-08-18T14:09:29;99591.47;;;26.84;47.16
804;BME280;25687;49.976;8.240;2022-08-18T14:11:56;99596.53;;;26.93;46.67
804;BME280;25687;49.976;8.240;2022-08-18T14:14:21;99586.00;;;26.99;47.00
804;BME280;25687;49.976;8.240;2022-08-18T14:16:47;99579.25;;;26.63;47.11
804;BME280;25687;49.976;8.240;2022-08-18T14:19:13;99589.19;;;26.68;46.95
804;BME280;25687;49.976;8.240;2022-08-18T14:21:57;99590.44;;;26.72;47.74
804;BME280;25687;49.976;8.240;2022-08-18T14:24:41;99589.44;;;27.00;46.58
804;BME280;25687;49.976;8.240;2022-08-18T14:27:28;99591.22;;;27.26;44.71
804;BME280;25687;49.976;8.240;2022-08-18T14:29:55;99586.31;;;27.50;45.04
804;BME280;25687;49.976;8.240;2022-08-18T14:32:22;99580.63;;;27.53;43.90
804;BME280;25687;49.976;8.240;2022-08-18T14:34:48;99579.28;;;27.03;45.19
804;BME280;25687;49.976;8.240;2022-08-18T14:37:13;99580.47;;;27.08;46.10
804;BME280;25687;49.976;8.240;2022-08-18T14:39:39;99576.81;;;27.22;44.39
804;BME280;25687;49.976;8.240;2022-08-18T14:42:04;99568.09;;;27.21;44.93
804;BME280;25687;49.976;8.240;2022-08-18T14:44:30;99576.63;;;27.10;45.66
804;BME280;25687;49.976;8.240;2022-08-18T14:46:55;99577.03;;;27.14;44.65
804;BME280;25687;49.976;8.240;2022-08-18T14:49:25;99578.06;;;26.93;45.36
804;BME280;25687;49.976;8.240;2022-08-18T14:51:50;99580.28;;;27.16;44.59
804;BME280;25687;49.976;8.240;2022-08-18T14:54:16;99566.03;;;27.23;44.96
804;BME280;25687;49.976;8.240;2022-08-18T14:56:41;99569.84;;;27.61;44.64
804;BME280;25687;49.976;8.240;2022-08-18T14:59:07;99569.59;;;27.69;43.54
804;BME280;25687;49.976;8.240;2022-08-18T15:01:34;99577.50;;;27.76;43.28
804;BME280;25687;49.976;8.240;2022-08-18T15:04:03;99583.19;;;27.73;43.10
804;BME280;25687;49.976;8.240;2022-08-18T15:06:29;99586.94;;;27.38;43.72
804;BME280;25687;49.976;8.240;2022-08-18T15:08:55;99572.97;;;27.18;44.35
804;BME280;25687;49.976;8.240;2022-08-18T15:11:22;99584.34;;;27.12;44.09
804;BME280;25687;49.976;8.240;2022-08-18T15:13:47;99588.03;;;26.90;44.09